createdAt,value
2023-05-16T00:00:50.200Z,4.68
2023-05-16T00:03:19.504Z,8.65
2023-05-16T00:05:48.099Z,5.07
2023-05-16T00:08:17.375Z,5.70
2023-05-16T00:10:45.889Z,5.40
2023-05-16T00:13:20.265Z,6.30
2023-05-16T00:15:48.660Z,4.97
2023-05-16T00:18:17.478Z,5.55
2023-05-16T00:20:46.014Z,5.55
2023-05-16T00:23:15.652Z,6.10
2023-05-16T00:25:45.514Z,6.38
2023-05-16T00:28:13.937Z,7.00
2023-05-16T00:30:45.258Z,6.57
2023-05-16T00:33:13.634Z,7.55
2023-05-16T00:35:43.086Z,7.60
2023-05-16T00:38:12.748Z,8.50
2023-05-16T00:40:42.496Z,7.75
2023-05-16T00:43:11.406Z,7.45
2023-05-16T00:45:39.966Z,6.45
2023-05-16T00:48:10.318Z,6.80
2023-05-16T00:50:39.227Z,5.80
2023-05-16T00:53:08.251Z,6.13
2023-05-16T00:55:39.226Z,6.05
2023-05-16T00:58:09.999Z,5.97
2023-05-16T01:00:39.261Z,7.80
2023-05-16T01:03:16.545Z,6.10
2023-05-16T01:05:45.749Z,6.57
2023-05-16T01:08:14.420Z,7.53
2023-05-16T01:10:51.529Z,7.13
2023-05-16T01:13:25.945Z,7.72
2023-05-16T01:16:05.136Z,7.18
2023-05-16T01:18:43.847Z,7.95
2023-05-16T01:21:19.809Z,9.73
2023-05-16T01:23:54.487Z,7.30
2023-05-16T01:26:28.305Z,7.50
2023-05-16T01:28:57.370Z,7.55
2023-05-16T01:31:26.593Z,6.57
2023-05-16T01:33:54.996Z,7.45
2023-05-16T01:36:29.156Z,7.07
2023-05-16T01:39:07.292Z,6.43
2023-05-16T01:41:49.220Z,6.53
2023-05-16T01:44:32.683Z,6.57
2023-05-16T01:47:05.657Z,6.78
2023-05-16T01:49:37.993Z,7.28
2023-05-16T01:52:10.627Z,8.05
2023-05-16T01:54:44.391Z,7.47
2023-05-16T01:57:14.883Z,8.68
2023-05-16T01:59:47.300Z,9.55
2023-05-16T02:02:19.474Z,8.13
2023-05-16T02:04:48.508Z,7.18
2023-05-16T02:07:17.234Z,8.73
2023-05-16T02:09:47.495Z,7.10
2023-05-16T02:12:17.713Z,10.07
2023-05-16T02:14:47.064Z,11.60
2023-05-16T02:17:15.474Z,9.40
2023-05-16T02:19:44.929Z,7.65
2023-05-16T02:22:13.474Z,8.20
2023-05-16T02:24:42.687Z,9.07
2023-05-16T02:27:11.421Z,9.30
2023-05-16T02:29:41.538Z,7.22
2023-05-16T02:32:09.910Z,11.00
2023-05-16T02:34:38.671Z,8.55
2023-05-16T02:37:07.131Z,9.63
2023-05-16T02:39:35.867Z,9.65
2023-05-16T02:42:04.823Z,8.57
2023-05-16T02:44:33.125Z,10.85
2023-05-16T02:47:03.615Z,10.57
2023-05-16T02:49:32.482Z,10.95
2023-05-16T02:52:02.636Z,10.25
2023-05-16T02:54:30.953Z,12.77
2023-05-16T02:57:00.783Z,7.78
2023-05-16T02:59:29.149Z,9.32
2023-05-16T03:01:58.767Z,13.82
2023-05-16T03:04:29.955Z,8.15
2023-05-16T03:06:59.290Z,8.45
2023-05-16T03:09:29.755Z,8.25
2023-05-16T03:11:59.549Z,8.07
2023-05-16T03:14:29.102Z,9.63
2023-05-16T03:16:57.602Z,9.65
2023-05-16T03:19:27.630Z,9.00
2023-05-16T03:21:57.640Z,8.40
2023-05-16T03:24:27.645Z,7.75
2023-05-16T03:26:56.302Z,9.88
2023-05-16T03:29:27.011Z,7.63
2023-05-16T03:31:58.252Z,8.05
2023-05-16T03:34:26.715Z,7.57
2023-05-16T03:36:55.480Z,8.35
2023-05-16T03:39:25.386Z,9.55
2023-05-16T03:41:56.838Z,9.40
2023-05-16T03:44:25.143Z,9.10
2023-05-16T03:46:56.350Z,10.05
2023-05-16T03:49:28.531Z,10.68
2023-05-16T03:51:58.105Z,11.10
2023-05-16T03:54:27.797Z,9.50
2023-05-16T03:56:56.995Z,9.63
2023-05-16T03:59:25.503Z,8.60
2023-05-16T04:01:54.557Z,7.90
2023-05-16T04:04:22.934Z,8.23
2023-05-16T04:06:52.450Z,8.35
2023-05-16T04:09:21.252Z,8.07
2023-05-16T04:11:51.730Z,8.90
2023-05-16T04:14:21.128Z,11.63
2023-05-16T04:16:49.519Z,11.60
2023-05-16T04:19:18.831Z,8.52
2023-05-16T04:21:47.644Z,9.60
2023-05-16T04:24:17.097Z,9.52
2023-05-16T04:26:45.473Z,9.95
2023-05-16T04:29:15.937Z,9.35
2023-05-16T04:31:44.418Z,8.82
2023-05-16T04:34:13.715Z,7.38
2023-05-16T04:36:42.103Z,9.02
2023-05-16T04:39:11.399Z,9.20
2023-05-16T04:41:40.145Z,8.95
2023-05-16T04:44:08.865Z,8.75
2023-05-16T04:46:38.766Z,9.13
2023-05-16T04:49:07.710Z,11.02
2023-05-16T04:51:36.052Z,10.48
2023-05-16T04:54:05.388Z,11.23
2023-05-16T04:56:34.211Z,10.65
2023-05-16T04:59:04.538Z,10.25
2023-05-16T05:01:32.925Z,10.45
2023-05-16T05:04:03.019Z,12.18
2023-05-16T05:06:32.316Z,9.98
2023-05-16T05:09:00.715Z,10.60
2023-05-16T05:11:30.143Z,11.38
2023-05-16T05:14:00.467Z,9.38
2023-05-16T05:16:29.225Z,9.35
2023-05-16T05:18:58.146Z,10.48
2023-05-16T05:21:27.958Z,11.30
2023-05-16T05:23:56.380Z,11.48
2023-05-16T05:26:26.092Z,12.20
2023-05-16T05:29:04.793Z,13.52
2023-05-16T05:31:35.544Z,11.25
2023-05-16T05:34:04.327Z,11.88
2023-05-16T05:36:34.139Z,11.43
2023-05-16T05:39:02.622Z,11.02
2023-05-16T05:41:31.439Z,12.15
2023-05-16T05:43:59.855Z,11.80
2023-05-16T05:46:29.210Z,12.20
2023-05-16T05:48:57.653Z,11.00
2023-05-16T05:51:27.339Z,11.95
2023-05-16T05:53:57.344Z,10.73
2023-05-16T05:56:27.036Z,11.18
2023-05-16T05:58:55.596Z,13.13
2023-05-16T06:01:24.485Z,11.57
2023-05-16T06:03:53.978Z,13.00
2023-05-16T06:06:22.621Z,11.50
2023-05-16T06:08:54.643Z,11.23
2023-05-16T06:11:25.369Z,11.57
2023-05-16T06:14:18.942Z,11.98
2023-05-16T06:16:47.933Z,11.30
2023-05-16T06:19:41.720Z,11.35
2023-05-16T06:22:10.199Z,11.25
2023-05-16T06:24:39.068Z,10.82
2023-05-16T06:27:10.389Z,11.45
2023-05-16T06:29:38.842Z,11.68
2023-05-16T06:32:10.312Z,12.65
2023-05-16T06:34:58.931Z,12.23
2023-05-16T06:37:43.447Z,12.40
2023-05-16T06:40:12.521Z,14.38
2023-05-16T06:42:44.762Z,14.93
2023-05-16T06:45:13.856Z,14.88
2023-05-16T06:47:42.335Z,14.18
2023-05-16T06:50:12.004Z,14.10
2023-05-16T06:52:40.456Z,13.60
2023-05-16T06:55:18.434Z,15.73
2023-05-16T06:58:11.469Z,12.15
2023-05-16T07:00:40.062Z,14.20
2023-05-16T07:03:08.643Z,13.25
2023-05-16T07:05:37.466Z,13.90
2023-05-16T07:08:07.979Z,12.60
2023-05-16T07:10:36.953Z,14.15
2023-05-16T07:13:06.217Z,14.00
2023-05-16T07:15:36.002Z,13.48
2023-05-16T07:18:05.878Z,12.48
2023-05-16T07:20:34.859Z,11.25
2023-05-16T07:23:03.270Z,15.63
2023-05-16T07:25:32.143Z,12.45
2023-05-16T07:28:01.017Z,12.75
2023-05-16T07:30:30.932Z,12.30
2023-05-16T07:33:00.702Z,11.77
2023-05-16T07:35:29.932Z,13.07
2023-05-16T07:37:58.479Z,12.77
2023-05-16T07:40:29.322Z,13.80
2023-05-16T07:42:57.731Z,12.25
2023-05-16T07:45:27.991Z,15.00
2023-05-16T07:47:56.585Z,13.82
2023-05-16T07:50:27.158Z,14.15
2023-05-16T07:52:55.598Z,12.93
2023-05-16T07:55:24.667Z,13.27
2023-05-16T07:57:53.200Z,14.05
2023-05-16T08:00:22.874Z,13.10
2023-05-16T08:02:52.467Z,12.15
2023-05-16T08:05:20.928Z,12.10
2023-05-16T08:07:51.688Z,13.35
2023-05-16T08:10:21.193Z,12.18
2023-05-16T08:12:50.544Z,12.80
2023-05-16T08:15:19.458Z,12.68
2023-05-16T08:17:52.088Z,12.85
2023-05-16T08:20:21.054Z,12.82
2023-05-16T08:22:51.291Z,12.80
2023-05-16T08:25:20.790Z,12.60
2023-05-16T08:27:51.062Z,13.32
2023-05-16T08:30:20.854Z,11.23
2023-05-16T08:32:49.307Z,10.68
2023-05-16T08:35:18.265Z,12.27
2023-05-16T08:37:46.641Z,10.82
2023-05-16T08:40:17.612Z,9.77
2023-05-16T08:42:46.028Z,10.60
2023-05-16T08:45:16.017Z,10.68
2023-05-16T08:47:46.465Z,10.95
2023-05-16T08:50:16.921Z,11.35
2023-05-16T08:54:06.844Z,13.95
2023-05-16T08:56:38.967Z,10.27
2023-05-16T08:59:08.411Z,11.25
2023-05-16T09:01:38.028Z,10.85
2023-05-16T09:04:11.662Z,11.38
2023-05-16T09:06:40.188Z,12.38
2023-05-16T09:09:12.900Z,13.00
2023-05-16T09:11:43.878Z,12.65
2023-05-16T09:14:12.376Z,13.50
2023-05-16T09:16:41.543Z,14.93
2023-05-16T09:19:14.294Z,14.70
2023-05-16T09:21:43.168Z,14.30
2023-05-16T09:24:11.942Z,14.95
2023-05-16T09:26:41.764Z,12.68
2023-05-16T09:29:16.272Z,12.82
2023-05-16T09:31:44.793Z,12.75
2023-05-16T09:34:13.346Z,12.00
2023-05-16T09:36:43.758Z,14.63
2023-05-16T09:39:16.650Z,10.32
2023-05-16T09:41:46.853Z,10.00
2023-05-16T09:44:15.439Z,10.45
2023-05-16T09:46:50.638Z,8.38
2023-05-16T09:49:19.289Z,8.32
2023-05-16T09:51:48.847Z,7.68
2023-05-16T09:54:17.322Z,8.20
2023-05-16T09:56:53.237Z,7.68
2023-05-16T09:59:22.990Z,7.18
2023-05-16T10:01:52.122Z,9.25
2023-05-16T10:04:21.029Z,7.22
2023-05-16T10:06:52.277Z,7.40
2023-05-16T10:09:22.412Z,7.40
2023-05-16T10:11:52.675Z,6.85
2023-05-16T10:14:24.290Z,7.97
2023-05-16T10:16:53.917Z,8.25
2023-05-16T10:19:24.354Z,9.15
2023-05-16T10:22:00.111Z,8.90
2023-05-16T10:24:34.062Z,10.75
2023-05-16T10:27:04.641Z,9.18
2023-05-16T10:29:46.569Z,9.60
2023-05-16T10:32:25.523Z,9.15
2023-05-16T10:34:55.689Z,9.15
2023-05-16T10:37:25.840Z,11.50
2023-05-16T10:39:54.719Z,8.52
2023-05-16T10:42:23.642Z,9.38
2023-05-16T10:45:04.799Z,8.20
2023-05-16T10:47:35.596Z,8.70
2023-05-16T10:50:04.302Z,9.27
2023-05-16T10:52:35.532Z,9.45
2023-05-16T10:55:05.623Z,8.50
2023-05-16T10:57:34.920Z,13.20
2023-05-16T11:00:23.254Z,10.05
2023-05-16T11:02:52.161Z,8.48
2023-05-16T11:05:21.039Z,9.02
2023-05-16T11:08:05.771Z,8.25
2023-05-16T11:10:34.395Z,8.95
2023-05-16T11:13:09.902Z,9.02
2023-05-16T11:15:39.689Z,9.23
2023-05-16T11:18:11.109Z,7.80
2023-05-16T11:20:41.851Z,7.03
2023-05-16T11:23:21.717Z,8.63
2023-05-16T11:25:54.446Z,7.18
2023-05-16T11:28:25.007Z,7.80
2023-05-16T11:30:58.335Z,11.80
2023-05-16T11:33:28.255Z,8.57
2023-05-16T11:38:40.496Z,10.00
2023-05-16T11:41:12.876Z,11.10
2023-05-16T11:43:42.760Z,7.00
2023-05-16T11:46:14.502Z,8.23
2023-05-16T11:48:48.843Z,10.02
2023-05-16T11:51:20.521Z,9.35
2023-05-16T11:53:50.835Z,9.27
2023-05-16T11:56:19.571Z,8.27
2023-05-16T11:58:49.595Z,10.90
2023-05-16T12:01:19.632Z,7.18
2023-05-16T12:03:56.101Z,5.93
2023-05-16T12:06:26.034Z,18.00
2023-05-16T12:08:54.478Z,5.47
2023-05-16T12:11:25.201Z,4.60
2023-05-16T12:14:01.761Z,5.80
2023-05-16T12:16:35.560Z,7.90
2023-05-16T12:19:05.086Z,6.30
2023-05-16T12:21:33.970Z,4.97
2023-05-16T12:24:02.945Z,4.85
2023-05-16T12:26:33.505Z,6.85
2023-05-16T12:29:05.545Z,6.75
2023-05-16T12:31:38.065Z,10.38
2023-05-16T12:34:16.689Z,7.03
2023-05-16T12:36:45.564Z,7.38
2023-05-16T12:39:15.816Z,5.45
2023-05-16T12:41:44.359Z,6.88
2023-05-16T12:44:14.889Z,6.75
2023-05-16T12:46:51.799Z,8.70
2023-05-16T12:49:22.000Z,9.98
2023-05-16T12:51:52.927Z,8.07
2023-05-16T12:54:22.860Z,9.60
2023-05-16T12:56:51.935Z,9.20
2023-05-16T12:59:20.624Z,7.38
2023-05-16T13:01:50.921Z,5.80
2023-05-16T13:04:20.495Z,6.63
2023-05-16T13:06:59.186Z,5.93
2023-05-16T13:09:31.318Z,7.10
2023-05-16T13:12:01.849Z,9.00
2023-05-16T13:14:30.488Z,5.95
2023-05-16T13:17:00.256Z,5.68
2023-05-16T13:19:31.764Z,5.20
2023-05-16T13:22:00.269Z,6.13
2023-05-16T13:24:29.199Z,5.28
2023-05-16T13:26:58.120Z,5.75
2023-05-16T13:29:27.514Z,5.72
2023-05-16T13:31:56.227Z,6.18
2023-05-16T13:34:26.748Z,6.72
2023-05-16T13:36:55.239Z,5.82
2023-05-16T13:39:24.542Z,5.32
2023-05-16T13:41:53.556Z,6.30
2023-05-16T13:44:22.843Z,5.70
2023-05-16T13:46:52.901Z,5.38
2023-05-16T13:49:22.258Z,6.25
2023-05-16T13:51:53.078Z,5.32
2023-05-16T13:54:21.883Z,6.20
2023-05-16T13:56:52.089Z,6.82
2023-05-16T13:59:37.371Z,6.72
2023-05-16T14:02:09.393Z,8.75
2023-05-16T14:04:38.286Z,7.97
2023-05-16T14:07:08.224Z,8.55
2023-05-16T14:09:39.371Z,7.53
2023-05-16T14:12:08.495Z,6.78
2023-05-16T14:14:37.544Z,7.95
2023-05-16T14:17:07.525Z,6.88
2023-05-16T14:19:37.411Z,11.48
2023-05-16T14:22:06.295Z,6.53
2023-05-16T14:24:36.482Z,7.10
2023-05-16T14:27:05.100Z,16.20
2023-05-16T14:29:34.474Z,22.45
2023-05-16T14:32:03.407Z,12.70
2023-05-16T14:34:31.817Z,8.63
2023-05-16T14:37:02.238Z,7.63
2023-05-16T14:39:30.632Z,5.57
2023-05-16T14:42:01.467Z,7.32
2023-05-16T14:44:29.888Z,6.45
2023-05-16T14:46:59.186Z,5.80
2023-05-16T14:49:27.755Z,6.65
2023-05-16T14:51:57.180Z,6.57
2023-05-16T14:54:26.258Z,7.22
2023-05-16T14:56:55.667Z,12.00
2023-05-16T14:59:27.000Z,11.90
2023-05-16T15:01:55.478Z,8.60
2023-05-16T15:04:24.183Z,11.65
2023-05-16T15:06:52.582Z,13.55
2023-05-16T15:09:21.952Z,9.90
2023-05-16T15:11:50.304Z,10.60
2023-05-16T15:14:19.869Z,10.48
2023-05-16T15:16:49.703Z,10.65
2023-05-16T15:19:19.225Z,9.98
2023-05-16T15:21:47.739Z,10.70
2023-05-16T15:24:18.041Z,11.32
2023-05-16T15:26:47.306Z,10.32
2023-05-16T15:29:15.883Z,12.85
2023-05-16T15:31:44.760Z,12.73
2023-05-16T15:34:14.792Z,12.43
2023-05-16T15:36:43.166Z,10.63
2023-05-16T15:39:12.303Z,11.77
2023-05-16T15:42:01.194Z,11.80
2023-05-16T15:44:31.149Z,11.63
2023-05-16T15:46:59.625Z,12.13
2023-05-16T15:49:29.828Z,12.02
2023-05-16T15:51:58.428Z,11.23
2023-05-16T15:54:28.439Z,12.30
2023-05-16T15:56:58.079Z,12.25
2023-05-16T15:59:27.123Z,10.32
2023-05-16T16:01:55.980Z,11.70
2023-05-16T16:04:24.876Z,9.95
2023-05-16T16:06:55.192Z,10.27
2023-05-16T16:09:23.717Z,10.20
2023-05-16T16:11:56.201Z,9.75
2023-05-16T16:14:25.371Z,12.23
2023-05-16T16:16:55.434Z,9.57
2023-05-16T16:19:24.149Z,8.30
2023-05-16T16:21:55.098Z,8.05
2023-05-16T16:24:23.680Z,7.00
2023-05-16T16:26:52.861Z,7.78
2023-05-16T16:29:21.446Z,10.23
2023-05-16T16:31:50.168Z,7.88
2023-05-16T16:34:20.353Z,8.00
2023-05-16T16:36:50.754Z,7.95
2023-05-16T16:39:21.152Z,8.50
2023-05-16T16:41:50.272Z,8.32
2023-05-16T16:44:20.051Z,9.55
2023-05-16T16:46:49.852Z,7.63
2023-05-16T16:49:19.128Z,7.97
2023-05-16T16:51:50.387Z,7.90
2023-05-16T16:54:18.973Z,8.43
2023-05-16T16:56:49.947Z,8.57
2023-05-16T16:59:18.846Z,8.80
2023-05-16T17:01:47.963Z,9.32
2023-05-16T17:04:16.373Z,8.32
2023-05-16T17:06:47.795Z,6.40
2023-05-16T17:09:18.406Z,10.23
2023-05-16T17:11:49.190Z,9.38
2023-05-16T17:14:18.069Z,9.77
2023-05-16T17:16:46.703Z,10.68
2023-05-16T17:19:16.418Z,10.45
2023-05-16T17:21:45.076Z,10.73
2023-05-16T17:24:14.453Z,11.15
2023-05-16T17:26:42.971Z,13.25
2023-05-16T17:29:13.546Z,11.85
2023-05-16T17:31:42.108Z,10.80
2023-05-16T17:34:10.507Z,10.80
2023-05-16T17:36:39.310Z,11.23
2023-05-16T17:39:08.363Z,10.68
2023-05-16T17:41:36.831Z,11.45
2023-05-16T17:44:06.907Z,10.60
2023-05-16T17:46:38.705Z,11.80
2023-05-16T17:49:08.061Z,11.13
2023-05-16T17:51:55.824Z,11.35
2023-05-16T17:54:24.486Z,11.07
2023-05-16T17:56:55.166Z,10.80
2023-05-16T17:59:23.623Z,12.35
2023-05-16T18:01:54.289Z,11.43
2023-05-16T18:04:23.724Z,9.50
2023-05-16T18:06:53.780Z,10.98
2023-05-16T18:09:22.661Z,9.18
2023-05-16T18:11:51.481Z,11.52
2023-05-16T18:14:21.493Z,9.55
2023-05-16T18:16:49.916Z,8.32
2023-05-16T18:19:20.376Z,9.32
2023-05-16T18:21:49.590Z,8.02
2023-05-16T18:24:18.414Z,8.70
2023-05-16T18:26:48.762Z,11.68
2023-05-16T18:29:17.171Z,8.18
2023-05-16T18:31:46.618Z,8.88
2023-05-16T18:34:15.026Z,9.75
2023-05-16T18:36:45.444Z,9.32
2023-05-16T18:39:13.803Z,8.50
2023-05-16T18:41:46.966Z,7.85
2023-05-16T18:44:17.274Z,9.35
2023-05-16T18:46:47.064Z,9.45
2023-05-16T18:49:15.755Z,8.27
2023-05-16T18:51:45.888Z,9.45
2023-05-16T18:54:14.296Z,8.02
2023-05-16T18:56:43.946Z,10.05
2023-05-16T18:59:12.417Z,8.40
2023-05-16T19:01:41.409Z,8.25
2023-05-16T19:04:09.992Z,8.35
2023-05-16T19:06:38.932Z,7.30
2023-05-16T19:09:09.484Z,8.65
2023-05-16T19:11:37.973Z,6.97
2023-05-16T19:14:07.955Z,7.13
2023-05-16T19:16:36.389Z,7.25
2023-05-16T19:19:07.830Z,6.13
2023-05-16T19:21:36.558Z,6.10
2023-05-16T19:24:05.354Z,6.07
2023-05-16T19:26:35.155Z,6.55
2023-05-16T19:29:04.044Z,8.20
2023-05-16T19:31:33.386Z,5.93
2023-05-16T19:34:01.910Z,6.47
2023-05-16T19:36:31.423Z,6.15
2023-05-16T19:39:00.138Z,5.25
2023-05-16T19:41:29.430Z,6.05
2023-05-16T19:43:59.620Z,5.45
2023-05-16T19:46:28.009Z,8.93
2023-05-16T19:48:57.056Z,5.68
2023-05-16T19:54:15.021Z,5.25
2023-05-16T19:56:43.489Z,6.63
2023-05-16T19:59:13.665Z,6.30
2023-05-16T20:01:42.154Z,8.23
2023-05-16T20:04:11.984Z,5.50
2023-05-16T20:06:41.027Z,10.25
2023-05-16T20:09:11.123Z,6.07
2023-05-16T20:11:40.003Z,5.10
2023-05-16T20:14:09.368Z,4.63
2023-05-16T20:16:39.513Z,4.75
2023-05-16T20:19:09.589Z,7.93
2023-05-16T20:21:38.120Z,7.55
2023-05-16T20:24:07.466Z,13.93
2023-05-16T20:26:36.367Z,14.18
2023-05-16T20:29:04.816Z,18.70
2023-05-16T20:31:33.716Z,13.00
2023-05-16T20:34:03.538Z,16.65
2023-05-16T20:36:32.323Z,16.83
2023-05-16T20:39:00.888Z,19.55
2023-05-16T20:41:30.110Z,18.25
2023-05-16T20:43:58.669Z,11.13
2023-05-16T20:46:28.146Z,16.73
2023-05-16T20:48:56.714Z,16.70
2023-05-16T20:51:27.030Z,13.07
2023-05-16T20:53:56.333Z,13.20
2023-05-16T20:56:24.964Z,16.77
2023-05-16T20:58:53.436Z,11.50
2023-05-16T21:01:22.026Z,14.75
2023-05-16T21:03:50.530Z,9.18
2023-05-16T21:06:18.954Z,8.70
2023-05-16T21:08:50.492Z,6.80
2023-05-16T21:11:18.907Z,11.40
2023-05-16T21:13:48.273Z,5.72
2023-05-16T21:16:17.105Z,6.78
2023-05-16T21:18:45.909Z,6.13
2023-05-16T21:21:14.947Z,6.88
2023-05-16T21:23:43.631Z,5.15
2023-05-16T21:26:14.267Z,8.38
2023-05-16T21:28:54.470Z,5.20
2023-05-16T21:31:25.258Z,5.88
2023-05-16T21:33:53.854Z,5.75
2023-05-16T21:36:23.348Z,5.20
2023-05-16T21:38:51.847Z,8.50
2023-05-16T21:41:23.650Z,6.10
2023-05-16T21:43:53.402Z,6.55
2023-05-16T21:46:22.487Z,8.55
2023-05-16T21:48:52.165Z,5.03
2023-05-16T21:51:20.790Z,10.38
2023-05-16T21:53:50.185Z,6.10
2023-05-16T21:56:19.453Z,4.38
2023-05-16T21:58:50.559Z,4.72
2023-05-16T22:01:20.176Z,5.72
2023-05-16T22:03:50.007Z,7.68
2023-05-16T22:06:19.303Z,5.75
2023-05-16T22:08:47.988Z,8.27
2023-05-16T22:11:18.191Z,7.25
2023-05-16T22:13:47.558Z,5.35
2023-05-16T22:16:17.434Z,6.00
2023-05-16T22:18:46.623Z,6.35
2023-05-16T22:21:16.203Z,6.63
2023-05-16T22:23:45.512Z,6.95
2023-05-16T22:26:14.489Z,6.68
2023-05-16T22:28:43.267Z,3.67
2023-05-16T22:31:11.668Z,8.30
2023-05-16T22:33:42.453Z,9.13
2023-05-16T22:36:11.101Z,5.85
2023-05-16T22:38:40.117Z,5.45
2023-05-16T22:41:08.662Z,6.22
2023-05-16T22:43:37.057Z,5.88
2023-05-16T22:46:05.909Z,7.68
2023-05-16T22:48:34.585Z,8.23
2023-05-16T22:51:05.337Z,7.20
2023-05-16T22:53:33.710Z,5.63
2023-05-16T22:56:02.546Z,6.20
2023-05-16T22:58:31.192Z,7.13
2023-05-16T23:01:02.359Z,7.30
2023-05-16T23:03:31.271Z,6.82
2023-05-16T23:05:59.722Z,6.57
2023-05-16T23:08:30.437Z,6.43
2023-05-16T23:10:58.790Z,6.57
2023-05-16T23:13:27.688Z,7.65
2023-05-16T23:15:56.226Z,7.60
2023-05-16T23:18:25.233Z,4.10
2023-05-16T23:20:53.738Z,4.90
2023-05-16T23:23:23.158Z,5.93
2023-05-16T23:25:53.411Z,7.85
2023-05-16T23:28:21.896Z,5.50
2023-05-16T23:30:51.442Z,4.45
2023-05-16T23:33:20.085Z,5.00
2023-05-16T23:35:48.560Z,8.85
2023-05-16T23:38:18.214Z,7.75
2023-05-16T23:40:47.720Z,7.75
2023-05-16T23:43:17.770Z,6.43
2023-05-16T23:45:47.172Z,7.45
2023-05-16T23:48:16.301Z,7.57
2023-05-16T23:50:44.825Z,7.57
2023-05-16T23:53:14.159Z,6.82
2023-05-16T23:55:42.582Z,3.45
2023-05-16T23:58:11.936Z,4.65
